Time;durP1;ratioP1;P1;durP2;ratioP2;P2;SDS_P1;SDS_P2;PMS_P1;PMS_P2;Temp;Humidity;BMP_temperature;BMP_pressure;BME280_temperature;BME280_humidity;BME280_pressure;Samples;Min_cycle;Max_cycle;Signal;HPM_P1;HPM_P2
2022/12/03 00:01:43;;;;;;;11.57;8.90;;;6.70;99.90;;;;;;5071694;28;20204;-66
2022/12/03 00:04:09;;;;;;;14.30;9.93;;;6.70;99.90;;;;;;5071920;28;20209;-65
2022/12/03 00:06:36;;;;;;;11.50;9.03;;;6.70;99.90;;;;;;5071720;28;20232;-65
2022/12/03 00:09:04;;;;;;;13.00;9.03;;;6.70;99.90;;;;;;5071845;28;20643;-65
2022/12/03 00:11:32;;;;;;;11.53;9.03;;;6.60;99.90;;;;;;5071479;28;20208;-66
2022/12/03 00:13:59;;;;;;;11.10;8.70;;;6.50;99.90;;;;;;5071550;28;20241;-64
2022/12/03 00:16:26;;;;;;;12.40;8.73;;;6.50;99.90;;;;;;5071795;28;20221;-65
2022/12/03 00:18:52;;;;;;;12.17;9.00;;;6.50;99.90;;;;;;5075713;28;20216;-66
2022/12/03 00:21:19;;;;;;;11.00;8.60;;;6.50;99.90;;;;;;5075612;28;20232;-64
2022/12/03 00:23:46;;;;;;;11.40;8.73;;;6.40;99.90;;;;;;5076343;28;20212;-65
2022/12/03 00:26:13;;;;;;;12.10;8.70;;;6.30;99.90;;;;;;5075154;28;20240;-64
2022/12/03 00:28:41;;;;;;;11.30;9.40;;;6.40;99.90;;;;;;5075165;28;20226;-64
2022/12/03 00:31:07;;;;;;;12.43;9.13;;;6.40;99.90;;;;;;5074437;28;20209;-64
2022/12/03 00:33:34;;;;;;;14.43;9.80;;;6.40;99.90;;;;;;5075288;28;20826;-65
2022/12/03 00:36:01;;;;;;;11.07;8.67;;;6.30;99.90;;;;;;5075210;28;20221;-65
2022/12/03 00:38:28;;;;;;;10.07;8.13;;;6.40;99.90;;;;;;5075139;28;20205;-64
2022/12/03 00:40:54;;;;;;;11.33;8.60;;;6.30;99.90;;;;;;5075199;28;20209;-65
2022/12/03 00:43:21;;;;;;;11.20;8.63;;;6.30;99.90;;;;;;5075355;28;20216;-65
2022/12/03 00:45:50;;;;;;;11.50;9.00;;;6.30;99.90;;;;;;5074945;28;20228;-66
2022/12/03 00:48:16;;;;;;;12.00;8.67;;;6.20;99.90;;;;;;5074941;28;20217;-68
2022/12/03 00:50:43;;;;;;;12.40;8.37;;;6.20;99.90;;;;;;5074478;28;20208;-65
2022/12/03 00:53:10;;;;;;;10.93;8.47;;;6.20;99.90;;;;;;5075128;28;20696;-64
2022/12/03 00:55:37;;;;;;;11.63;8.80;;;6.20;99.90;;;;;;5075074;28;20201;-65
2022/12/03 00:58:03;;;;;;;9.87;7.93;;;6.20;99.90;;;;;;5075366;28;20207;-67
2022/12/03 01:00:30;;;;;;;9.97;7.53;;;6.30;99.90;;;;;;5074353;28;20216;-64
2022/12/03 01:02:58;;;;;;;10.03;7.97;;;6.30;99.90;;;;;;5074730;28;20205;-64
2022/12/03 01:05:25;;;;;;;11.10;8.40;;;6.30;99.90;;;;;;5074867;28;20228;-66
2022/12/03 01:07:51;;;;;;;10.17;7.70;;;6.30;99.90;;;;;;5074612;28;20361;-65
2022/12/03 01:10:19;;;;;;;9.80;8.00;;;6.40;99.90;;;;;;5074459;28;20201;-64
2022/12/03 01:12:45;;;;;;;11.50;8.60;;;6.50;99.90;;;;;;5074455;28;20208;-65
2022/12/03 01:15:12;;;;;;;11.63;8.37;;;6.50;99.90;;;;;;5074934;28;20307;-65
2022/12/03 01:17:39;;;;;;;11.17;8.53;;;6.50;99.90;;;;;;5074679;28;20225;-64
2022/12/03 01:20:09;;;;;;;11.27;8.63;;;6.50;99.90;;;;;;5074169;28;20216;-66
2022/12/03 01:22:36;;;;;;;11.60;8.40;;;6.50;99.90;;;;;;5074500;28;20212;-69
2022/12/03 01:25:03;;;;;;;10.47;8.00;;;6.50;99.90;;;;;;5074318;28;20223;-67
2022/12/03 01:27:30;;;;;;;10.27;8.40;;;6.60;99.90;;;;;;5115040;22;20219;-58
2022/12/03 01:29:57;;;;;;;10.97;8.07;;;6.60;99.90;;;;;;5105345;28;20218;-58
2022/12/03 01:32:22;;;;;;;10.90;8.30;;;6.50;99.90;;;;;;5115490;28;20589;-58
2022/12/03 01:34:50;;;;;;;10.40;8.20;;;6.40;99.90;;;;;;5115195;28;20199;-58
2022/12/03 01:37:21;;;;;;;11.50;8.67;;;6.40;99.90;;;;;;5115395;28;20732;-59
2022/12/03 01:39:48;;;;;;;12.83;8.87;;;6.30;99.90;;;;;;5114677;28;20291;-58
2022/12/03 01:42:17;;;;;;;11.20;8.60;;;6.30;99.90;;;;;;5115450;28;20203;-58
2022/12/03 01:44:45;;;;;;;10.30;8.50;;;6.30;99.90;;;;;;5115464;28;20212;-58
2022/12/03 01:47:15;;;;;;;11.10;9.10;;;6.30;99.90;;;;;;5115446;28;20223;-59
2022/12/03 01:49:45;;;;;;;10.17;8.20;;;6.30;99.90;;;;;;5114959;28;20695;-58
2022/12/03 01:52:13;;;;;;;15.87;9.70;;;6.20;99.90;;;;;;5115060;28;20215;-59
2022/12/03 01:54:45;;;;;;;13.30;9.83;;;6.20;99.90;;;;;;5115765;28;20212;-58
2022/12/03 01:57:19;;;;;;;12.90;9.97;;;6.20;99.90;;;;;;5115319;28;20223;-58
2022/12/03 01:59:47;;;;;;;13.47;9.83;;;6.30;99.90;;;;;;5114606;28;20230;-59
2022/12/03 02:02:17;;;;;;;14.13;10.43;;;6.20;99.90;;;;;;5115038;28;20211;-58
2022/12/03 02:04:44;;;;;;;13.90;10.40;;;6.20;99.90;;;;;;5115401;28;20223;-58
2022/12/03 02:07:23;;;;;;;16.47;10.50;;;6.30;99.90;;;;;;5114933;28;20234;-59
2022/12/03 02:09:52;;;;;;;13.67;9.90;;;6.30;99.90;;;;;;5114618;28;20203;-58
2022/12/03 02:12:25;;;;;;;15.23;10.03;;;6.30;99.90;;;;;;5115108;28;20215;-58
2022/12/03 02:14:52;;;;;;;15.47;10.43;;;6.30;99.90;;;;;;5114818;28;20203;-58
2022/12/03 02:17:19;;;;;;;15.90;10.77;;;6.30;99.90;;;;;;5114859;28;20227;-58
2022/12/03 02:19:46;;;;;;;14.53;10.27;;;6.30;99.90;;;;;;5114289;28;20446;-58
2022/12/03 02:22:26;;;;;;;16.00;10.73;;;6.30;99.90;;;;;;5114914;28;20214;-58
2022/12/03 02:25:04;;;;;;;16.30;10.63;;;6.30;99.90;;;;;;5115081;28;20576;-58
2022/12/03 02:27:30;;;;;;;15.63;10.60;;;6.20;99.90;;;;;;5114327;28;20690;-58
2022/12/03 02:29:57;;;;;;;14.07;10.33;;;6.20;99.90;;;;;;5114717;28;20204;-58
2022/12/03 02:32:24;;;;;;;16.87;11.23;;;6.10;99.90;;;;;;5114720;28;20580;-58
2022/12/03 02:34:51;;;;;;;14.87;10.53;;;6.20;99.90;;;;;;5114515;28;20203;-58
2022/12/03 02:37:22;;;;;;;15.90;10.83;;;6.20;99.90;;;;;;5114613;28;20219;-59
2022/12/03 02:39:51;;;;;;;15.30;11.27;;;6.10;99.90;;;;;;5113934;28;20236;-58
2022/12/03 02:42:34;;;;;;;16.83;11.33;;;6.10;99.90;;;;;;5114499;28;20206;-58
2022/12/03 02:45:06;;;;;;;16.67;11.17;;;6.20;99.90;;;;;;5114275;28;20204;-58
2022/12/03 02:47:35;;;;;;;16.73;11.70;;;6.10;99.90;;;;;;5114492;28;20231;-58
2022/12/03 02:50:02;;;;;;;15.17;10.67;;;6.10;99.90;;;;;;5113839;28;20203;-58
2022/12/03 02:52:29;;;;;;;15.63;11.00;;;6.00;99.90;;;;;;5113996;28;20211;-58
2022/12/03 02:54:56;;;;;;;16.87;11.33;;;6.00;99.90;;;;;;5113768;28;20581;-58
2022/12/03 02:57:24;;;;;;;16.67;11.00;;;5.90;99.90;;;;;;5113856;28;20227;-58
2022/12/03 02:59:51;;;;;;;17.77;11.23;;;6.00;99.90;;;;;;5113445;28;20211;-58
2022/12/03 03:02:18;;;;;;;15.23;10.73;;;5.90;99.90;;;;;;5113832;28;20203;-58
2022/12/03 03:04:45;;;;;;;15.90;10.73;;;5.80;99.90;;;;;;5113643;28;20207;-58
2022/12/03 03:07:12;;;;;;;14.43;10.40;;;5.80;99.90;;;;;;5113576;28;20227;-58
2022/12/03 03:09:40;;;;;;;15.50;10.10;;;5.80;99.90;;;;;;5113553;28;20207;-58
2022/12/03 03:12:06;;;;;;;16.20;10.93;;;5.80;99.90;;;;;;5113945;28;20630;-58
2022/12/03 03:14:35;;;;;;;18.63;11.50;;;5.80;99.90;;;;;;5114204;28;20208;-58
2022/12/03 03:17:02;;;;;;;15.60;10.73;;;5.70;99.90;;;;;;5113924;28;20223;-58
2022/12/03 03:19:29;;;;;;;15.13;10.77;;;5.70;99.90;;;;;;5113937;28;20199;-58
2022/12/03 03:21:56;;;;;;;18.20;11.23;;;5.70;99.90;;;;;;5113455;28;20207;-58
2022/12/03 03:24:23;;;;;;;17.67;11.57;;;5.70;99.90;;;;;;5114609;28;20208;-58
2022/12/03 03:26:50;;;;;;;15.67;11.33;;;5.70;99.90;;;;;;5113603;28;20618;-59
2022/12/03 03:29:17;;;;;;;16.13;11.90;;;5.70;99.90;;;;;;5113814;28;20211;-58
2022/12/03 03:31:47;;;;;;;16.27;11.43;;;5.70;99.90;;;;;;5113393;28;20210;-58
2022/12/03 03:34:14;;;;;;;17.60;12.07;;;5.70;99.90;;;;;;5114327;28;20662;-58
2022/12/03 03:36:41;;;;;;;17.90;11.67;;;5.70;99.90;;;;;;5113747;28;20584;-58
2022/12/03 03:39:08;;;;;;;15.17;10.40;;;5.70;99.90;;;;;;5113120;28;20218;-58
2022/12/03 03:41:36;;;;;;;16.90;12.23;;;5.80;99.90;;;;;;5112684;28;20670;-58
2022/12/03 03:44:04;;;;;;;17.77;11.67;;;5.70;99.90;;;;;;5113410;28;20207;-58
2022/12/03 03:46:32;;;;;;;15.50;11.33;;;5.70;99.90;;;;;;5113047;28;20231;-58
2022/12/03 03:49:01;;;;;;;17.03;11.90;;;5.60;99.90;;;;;;5113790;28;20207;-58
2022/12/03 03:51:28;;;;;;;17.07;12.20;;;5.70;99.90;;;;;;5113383;28;20208;-58
2022/12/03 03:53:55;;;;;;;17.50;12.10;;;5.70;99.90;;;;;;5118140;28;20203;-57
2022/12/03 03:56:22;;;;;;;19.20;12.97;;;5.80;99.90;;;;;;5117637;28;20297;-58
2022/12/03 03:58:49;;;;;;;18.77;13.00;;;5.90;99.90;;;;;;5117458;28;20578;-58
2022/12/03 04:01:17;;;;;;;18.63;12.73;;;6.00;99.90;;;;;;5117565;28;20206;-58
2022/12/03 04:03:44;;;;;;;21.23;13.73;;;6.00;99.90;;;;;;5117773;28;20218;-58
2022/12/03 04:06:12;;;;;;;17.73;12.87;;;6.10;99.90;;;;;;5117065;28;20231;-59
2022/12/03 04:08:39;;;;;;;16.27;12.13;;;6.20;99.90;;;;;;5117261;28;20207;-58
2022/12/03 04:13:50;;;;;;;21.77;14.37;;;6.40;99.90;;;;;;5117078;28;20194;-58
2022/12/03 04:16:17;;;;;;;20.00;13.83;;;6.50;99.90;;;;;;5117185;28;20224;-58
2022/12/03 04:18:44;;;;;;;19.27;13.10;;;6.60;99.90;;;;;;5117293;28;20200;-58
2022/12/03 04:23:59;;;;;;;18.40;12.33;;;6.60;99.90;;;;;;5117392;28;20207;-58
2022/12/03 04:29:10;;;;;;;19.27;11.93;;;6.60;99.90;;;;;;5117269;28;20206;-58
2022/12/03 04:37:08;;;;;;;19.43;13.30;;;6.60;99.90;;;;;;5116827;28;20636;-58
2022/12/03 04:39:35;;;;;;;20.30;13.60;;;6.60;99.90;;;;;;5116716;28;20204;-59
2022/12/03 04:42:02;;;;;;;18.87;12.57;;;6.60;99.90;;;;;;5116009;28;20207;-58
2022/12/03 04:44:38;;;;;;;19.47;12.97;;;6.70;99.90;;;;;;5116566;28;20690;-58
2022/12/03 04:47:09;;;;;;;18.60;12.87;;;6.70;99.90;;;;;;5115967;28;20651;-58
2022/12/03 04:49:38;;;;;;;18.30;12.33;;;6.70;99.90;;;;;;5116566;28;20199;-58
2022/12/03 04:52:05;;;;;;;19.17;12.67;;;6.60;99.90;;;;;;5116400;28;20206;-58
2022/12/03 04:54:33;;;;;;;18.20;12.17;;;6.50;99.90;;;;;;5116248;28;20203;-58
2022/12/03 04:57:00;;;;;;;21.47;13.03;;;6.50;99.90;;;;;;5116337;28;20725;-58
2022/12/03 04:59:27;;;;;;;19.70;13.03;;;6.50;99.90;;;;;;5116199;28;20211;-58
2022/12/03 05:01:54;;;;;;;19.23;12.60;;;6.50;99.90;;;;;;5115967;28;20230;-58
2022/12/03 05:04:21;;;;;;;18.03;12.30;;;6.50;99.90;;;;;;5116348;28;20204;-58
2022/12/03 05:06:48;;;;;;;16.33;12.37;;;6.50;99.90;;;;;;5116533;28;20224;-58
2022/12/03 05:09:15;;;;;;;19.33;13.13;;;6.50;99.90;;;;;;5116583;28;20200;-58
2022/12/03 05:11:43;;;;;;;19.10;12.33;;;6.40;99.90;;;;;;5116029;28;20573;-58
2022/12/03 05:14:10;;;;;;;19.17;13.43;;;6.40;99.90;;;;;;5116190;28;20211;-58
2022/12/03 05:16:38;;;;;;;19.30;13.13;;;6.50;99.90;;;;;;5116026;28;20223;-58
2022/12/03 05:19:06;;;;;;;16.70;12.07;;;6.50;99.90;;;;;;5115747;28;20681;-58
2022/12/03 05:21:33;;;;;;;19.07;12.73;;;6.50;99.90;;;;;;5115073;28;20603;-58
2022/12/03 05:24:00;;;;;;;20.13;13.80;;;6.50;99.90;;;;;;5116022;28;20604;-58
2022/12/03 05:26:27;;;;;;;20.03;13.37;;;6.50;99.90;;;;;;5116291;28;20224;-58
2022/12/03 05:28:55;;;;;;;20.47;13.40;;;6.50;99.90;;;;;;5116371;28;20214;-58
2022/12/03 05:31:21;;;;;;;20.43;13.57;;;6.50;99.90;;;;;;5115728;28;20203;-58
2022/12/03 05:33:48;;;;;;;18.20;13.37;;;6.50;99.90;;;;;;5115587;28;20208;-58
2022/12/03 05:36:15;;;;;;;21.23;13.47;;;6.50;99.90;;;;;;5115237;28;20230;-58
2022/12/03 05:38:42;;;;;;;19.30;12.83;;;6.50;99.90;;;;;;5115533;28;20214;-58
2022/12/03 05:43:49;;;;;;;21.73;13.50;;;6.40;99.90;;;;;;5114392;28;20195;-58
2022/12/03 05:46:17;;;;;;;19.33;13.20;;;6.40;99.90;;;;;;5115108;28;20224;-58
2022/12/03 05:48:44;;;;;;;21.10;13.37;;;6.40;99.90;;;;;;5115596;28;20594;-58
2022/12/03 05:51:11;;;;;;;23.10;13.87;;;6.40;99.90;;;;;;5114896;28;20199;-58
2022/12/03 05:53:37;;;;;;;18.90;12.83;;;6.40;99.90;;;;;;5115858;28;20219;-58
2022/12/03 05:56:05;;;;;;;23.03;15.13;;;6.40;99.90;;;;;;5117361;28;20207;-58
2022/12/03 05:58:31;;;;;;;31.30;21.00;;;6.50;99.90;;;;;;5114861;28;20207;-58
2022/12/03 06:00:58;;;;;;;23.73;15.63;;;6.50;99.90;;;;;;5113591;28;20666;-58
2022/12/03 06:03:26;;;;;;;22.80;14.37;;;6.40;99.90;;;;;;5114460;28;20203;-58
2022/12/03 06:05:53;;;;;;;23.77;15.53;;;6.40;99.90;;;;;;5114492;28;20568;-58
2022/12/03 06:08:19;;;;;;;23.17;15.10;;;6.40;99.90;;;;;;5113902;28;20230;-58
2022/12/03 06:10:46;;;;;;;21.73;13.53;;;6.50;99.90;;;;;;5113731;28;20210;-58
2022/12/03 06:13:13;;;;;;;20.93;13.37;;;6.60;99.90;;;;;;5114690;28;20206;-58
2022/12/03 06:15:39;;;;;;;25.43;14.77;;;6.60;99.90;;;;;;5114023;28;20329;-58
2022/12/03 06:18:06;;;;;;;20.77;13.27;;;6.60;99.90;;;;;;5114018;28;20224;-58
2022/12/03 06:20:34;;;;;;;23.87;14.67;;;6.60;99.90;;;;;;5113322;28;20575;-58
2022/12/03 06:23:01;;;;;;;23.93;14.73;;;6.60;99.90;;;;;;5114035;28;20206;-58
2022/12/03 06:25:28;;;;;;;23.37;14.57;;;6.70;99.90;;;;;;5114583;28;20211;-58
2022/12/03 06:27:54;;;;;;;23.10;14.30;;;6.70;99.90;;;;;;5113669;28;20258;-58
2022/12/03 06:30:21;;;;;;;21.37;14.43;;;6.80;99.90;;;;;;5113274;28;20200;-58
2022/12/03 06:32:48;;;;;;;23.27;14.20;;;6.80;99.90;;;;;;5114345;28;20230;-58
2022/12/03 06:35:15;;;;;;;21.60;14.63;;;6.70;99.90;;;;;;5113943;28;20204;-58
2022/12/03 06:37:43;;;;;;;24.10;15.43;;;6.70;99.90;;;;;;5113765;28;20222;-58
2022/12/03 06:40:11;;;;;;;22.33;14.67;;;6.70;99.90;;;;;;5113598;28;20210;-58
2022/12/03 06:42:37;;;;;;;22.43;14.30;;;6.70;99.90;;;;;;5113916;28;20671;-58
2022/12/03 06:45:05;;;;;;;22.73;14.57;;;6.70;99.90;;;;;;5114406;28;20204;-58
2022/12/03 06:47:32;;;;;;;24.17;14.87;;;6.70;99.90;;;;;;5114251;28;20228;-58
2022/12/03 06:49:58;;;;;;;23.43;15.27;;;6.60;99.90;;;;;;5113563;28;20210;-58
2022/12/03 06:52:25;;;;;;;20.50;14.20;;;6.60;99.90;;;;;;5114417;28;20584;-58
2022/12/03 06:54:53;;;;;;;25.37;15.43;;;6.50;99.90;;;;;;5115088;28;20207;-58
2022/12/03 06:57:20;;;;;;;25.17;15.73;;;6.50;99.90;;;;;;5114909;28;20227;-58
2022/12/03 06:59:47;;;;;;;21.50;14.03;;;6.50;99.90;;;;;;5114276;28;20234;-58
2022/12/03 07:02:13;;;;;;;30.83;17.73;;;6.50;99.90;;;;;;5114007;28;20203;-58
2022/12/03 07:04:40;;;;;;;23.57;14.83;;;6.50;99.90;;;;;;5114287;28;20211;-59
2022/12/03 07:07:07;;;;;;;24.97;14.63;;;6.50;99.90;;;;;;5114295;28;20235;-58
2022/12/03 07:09:33;;;;;;;26.67;15.17;;;6.60;99.90;;;;;;5114586;28;20203;-58
2022/12/03 07:12:01;;;;;;;27.43;15.90;;;6.60;99.90;;;;;;5114439;28;20211;-58
2022/12/03 07:14:28;;;;;;;25.53;15.47;;;6.60;99.90;;;;;;5114764;28;20683;-58
2022/12/03 07:16:55;;;;;;;25.20;16.23;;;6.50;99.90;;;;;;5114648;28;20223;-58
2022/12/03 07:19:21;;;;;;;28.07;16.67;;;6.50;99.90;;;;;;5114449;28;20199;-58
2022/12/03 07:21:49;;;;;;;25.47;15.60;;;6.60;99.90;;;;;;5114488;28;20211;-58
2022/12/03 07:24:16;;;;;;;25.93;16.33;;;6.60;99.90;;;;;;5115579;28;20207;-58
2022/12/03 07:26:43;;;;;;;28.13;16.33;;;6.60;99.90;;;;;;5134133;22;20910;-70
2022/12/03 07:29:11;;;;;;;26.27;16.20;;;6.60;99.90;;;;;;5104063;28;20383;-69
2022/12/03 07:31:38;;;;;;;23.53;15.60;;;6.60;99.90;;;;;;5111654;28;20206;-69
2022/12/03 07:34:05;;;;;;;25.63;16.00;;;6.60;99.90;;;;;;5112815;28;20199;-69
2022/12/03 07:36:32;;;;;;;24.73;15.33;;;6.60;99.90;;;;;;5112443;28;20207;-68
2022/12/03 07:38:58;;;;;;;26.97;17.17;;;6.60;99.90;;;;;;5112671;28;20226;-70
2022/12/03 07:41:25;;;;;;;29.77;16.73;;;6.60;99.90;;;;;;5111796;28;20203;-71
2022/12/03 07:43:52;;;;;;;27.27;18.85;;;6.60;99.90;;;;;;5096607;28;20435;-63
2022/12/03 07:46:20;;;;;;;28.23;18.47;;;6.70;99.90;;;;;;5089829;28;20203;-65
2022/12/03 07:48:46;;;;;;;29.10;17.20;;;6.80;99.90;;;;;;5091233;28;20239;-68
2022/12/03 07:51:13;;;;;;;33.47;18.10;;;6.80;99.90;;;;;;5090174;28;20208;-69
2022/12/03 07:53:40;;;;;;;29.17;17.57;;;6.80;99.90;;;;;;5090736;28;20215;-70
2022/12/03 07:56:08;;;;;;;28.20;17.97;;;6.80;99.90;;;;;;5086280;28;20207;-70
2022/12/03 07:58:34;;;;;;;25.33;15.83;;;6.80;99.90;;;;;;5090559;28;20230;-65
2022/12/03 08:01:01;;;;;;;23.53;15.00;;;6.70;99.90;;;;;;5089609;28;20609;-68
2022/12/03 08:03:29;;;;;;;22.10;14.67;;;6.60;99.90;;;;;;5089910;28;20208;-64
2022/12/03 08:05:56;;;;;;;21.47;14.57;;;6.40;99.90;;;;;;5089998;28;20710;-62
2022/12/03 08:08:23;;;;;;;26.23;15.57;;;6.30;99.90;;;;;;5090811;28;20224;-62
2022/12/03 08:10:49;;;;;;;22.00;14.80;;;6.20;99.90;;;;;;5089977;28;20200;-62
2022/12/03 08:13:18;;;;;;;19.70;13.17;;;6.10;99.90;;;;;;5090681;28;20212;-65
2022/12/03 08:15:45;;;;;;;22.03;14.03;;;6.20;99.90;;;;;;5090021;28;20215;-63
2022/12/03 08:18:15;;;;;;;21.83;14.43;;;6.30;99.90;;;;;;5089690;28;20224;-69
2022/12/03 08:20:45;;;;;;;19.83;13.07;;;6.40;99.90;;;;;;5089521;28;20205;-72
2022/12/03 08:23:14;;;;;;;18.97;12.80;;;6.40;99.90;;;;;;5090848;28;20208;-71
2022/12/03 08:25:42;;;;;;;19.60;13.23;;;6.30;99.90;;;;;;5090224;28;20200;-59
2022/12/03 08:28:13;;;;;;;20.53;13.03;;;6.30;99.90;;;;;;5090116;28;20256;-64
2022/12/03 08:30:40;;;;;;;18.13;12.57;;;6.30;99.90;;;;;;5090263;28;20211;-67
2022/12/03 08:33:17;;;;;;;18.70;12.97;;;6.30;99.90;;;;;;5090397;28;20706;-67
2022/12/03 08:35:50;;;;;;;23.10;15.10;;;6.30;99.90;;;;;;5090262;28;20211;-65
2022/12/03 08:38:20;;;;;;;21.47;13.83;;;6.30;99.90;;;;;;5091734;28;20228;-65
2022/12/03 08:40:49;;;;;;;18.70;13.37;;;6.30;99.90;;;;;;5093116;28;20239;-65
2022/12/03 08:43:19;;;;;;;19.13;13.53;;;6.30;99.90;;;;;;5094081;28;20728;-65
2022/12/03 08:45:48;;;;;;;19.47;13.13;;;6.20;99.90;;;;;;5093812;28;20204;-64
2022/12/03 08:48:25;;;;;;;20.90;14.13;;;6.10;99.90;;;;;;5093887;28;20224;-68
2022/12/03 08:50:55;;;;;;;20.83;13.50;;;6.10;99.90;;;;;;5092916;28;20256;-65
2022/12/03 08:53:29;;;;;;;19.07;13.10;;;6.20;99.90;;;;;;5093911;28;20236;-65
2022/12/03 08:55:57;;;;;;;18.10;12.70;;;6.20;99.90;;;;;;5093775;28;20204;-65
2022/12/03 08:58:27;;;;;;;19.33;12.90;;;6.20;99.90;;;;;;5093827;28;20220;-63
2022/12/03 09:00:58;;;;;;;19.20;13.17;;;6.20;99.90;;;;;;5093324;28;20208;-65
2022/12/03 09:03:24;;;;;;;18.53;13.33;;;6.10;99.90;;;;;;5093195;28;20200;-64
2022/12/03 09:05:52;;;;;;;21.07;14.03;;;6.20;99.90;;;;;;5093850;28;20205;-64
2022/12/03 09:08:19;;;;;;;20.47;13.47;;;6.30;99.90;;;;;;5093968;28;20224;-67
2022/12/03 09:10:46;;;;;;;19.30;13.33;;;6.20;99.90;;;;;;5093464;28;20211;-65
2022/12/03 09:13:13;;;;;;;20.20;12.97;;;6.20;99.90;;;;;;5093138;28;20591;-63
2022/12/03 09:15:39;;;;;;;21.70;13.77;;;6.20;99.90;;;;;;5093056;28;20200;-63
2022/12/03 09:18:06;;;;;;;19.60;13.37;;;6.20;99.90;;;;;;5093850;28;20225;-64
2022/12/03 09:20:33;;;;;;;20.40;13.33;;;6.10;99.90;;;;;;5093933;28;20675;-64
2022/12/03 09:23:01;;;;;;;20.77;12.83;;;6.10;99.90;;;;;;5094326;28;20205;-65
2022/12/03 09:25:28;;;;;;;23.67;14.20;;;6.00;99.90;;;;;;5093462;28;20746;-64
2022/12/03 09:27:55;;;;;;;16.57;12.23;;;5.90;99.90;;;;;;5092732;28;20228;-63
2022/12/03 09:30:22;;;;;;;17.80;12.50;;;5.90;99.90;;;;;;5093881;28;20230;-64
2022/12/03 09:32:48;;;;;;;19.47;12.37;;;5.90;99.90;;;;;;5093065;28;20208;-64
2022/12/03 09:35:15;;;;;;;18.80;12.90;;;5.90;99.90;;;;;;5093482;28;20208;-64
2022/12/03 09:37:42;;;;;;;18.40;12.90;;;6.00;99.90;;;;;;5094559;28;20248;-65
2022/12/03 09:40:11;;;;;;;16.77;11.93;;;6.00;99.90;;;;;;5094407;28;20207;-65
2022/12/03 09:42:38;;;;;;;18.93;12.93;;;6.10;99.90;;;;;;5094821;28;20207;-65
2022/12/03 09:45:11;;;;;;;18.27;12.90;;;6.10;99.90;;;;;;5094686;28;20211;-65
2022/12/03 09:47:38;;;;;;;15.77;11.33;;;6.10;99.90;;;;;;5093503;28;20238;-64
2022/12/03 09:50:06;;;;;;;16.90;12.30;;;6.10;99.90;;;;;;5091822;28;20227;-66
2022/12/03 09:52:34;;;;;;;17.73;12.13;;;6.10;99.90;;;;;;5092076;28;20208;-65
2022/12/03 09:55:05;;;;;;;19.87;13.77;;;6.20;99.90;;;;;;5092217;28;20200;-65
2022/12/03 09:57:33;;;;;;;19.23;13.03;;;6.20;99.90;;;;;;5092510;28;20221;-64
2022/12/03 10:00:00;;;;;;;16.13;11.80;;;6.40;99.90;;;;;;5092883;28;20208;-63
2022/12/03 10:02:29;;;;;;;14.90;11.13;;;6.40;99.90;;;;;;5092048;28;20781;-64
2022/12/03 10:04:57;;;;;;;17.20;11.03;;;6.50;99.90;;;;;;5091603;28;20196;-65
2022/12/03 10:07:25;;;;;;;16.30;11.77;;;6.50;99.90;;;;;;5092213;28;20228;-65
2022/12/03 10:09:52;;;;;;;18.53;11.93;;;6.40;99.90;;;;;;5092222;28;20212;-64
2022/12/03 10:12:23;;;;;;;16.63;11.40;;;6.30;99.90;;;;;;5092400;28;20231;-65
2022/12/03 10:14:52;;;;;;;16.47;11.73;;;6.30;99.90;;;;;;5092199;28;20208;-65
2022/12/03 10:17:19;;;;;;;17.03;11.87;;;6.30;99.90;;;;;;5092262;28;20220;-65
2022/12/03 10:19:46;;;;;;;17.90;11.77;;;6.30;99.90;;;;;;5092217;28;20675;-65
2022/12/03 10:22:14;;;;;;;18.07;12.27;;;6.30;99.90;;;;;;5091619;28;20200;-68
2022/12/03 10:24:43;;;;;;;17.23;11.03;;;6.30;99.90;;;;;;5092011;28;20646;-64
2022/12/03 10:27:22;;;;;;;17.27;11.37;;;6.30;99.90;;;;;;5091955;28;20232;-66
2022/12/03 10:29:56;;;;;;;18.10;11.37;;;6.20;99.90;;;;;;5091494;28;20694;-63
2022/12/03 10:32:26;;;;;;;16.77;11.30;;;6.10;99.90;;;;;;5091315;28;20360;-65
2022/12/03 10:35:09;;;;;;;16.93;11.13;;;6.00;99.90;;;;;;5091595;28;20219;-65
2022/12/03 10:37:35;;;;;;;16.30;10.80;;;5.80;99.90;;;;;;5091864;28;20224;-64
2022/12/03 10:40:07;;;;;;;17.20;10.93;;;5.70;99.90;;;;;;5091929;28;20204;-65
2022/12/03 10:42:36;;;;;;;17.70;11.40;;;5.70;99.90;;;;;;5090537;28;20738;-65
2022/12/03 10:45:25;;;;;;;17.30;11.70;;;5.70;99.90;;;;;;5091578;28;20200;-65
2022/12/03 10:48:04;;;;;;;17.83;11.13;;;5.70;99.90;;;;;;5085345;28;20591;-65
2022/12/03 10:50:31;;;;;;;18.00;11.57;;;5.70;99.90;;;;;;5091194;28;20200;-65
2022/12/03 10:52:58;;;;;;;19.03;12.00;;;5.70;99.90;;;;;;5091044;28;20219;-65
2022/12/03 10:55:25;;;;;;;17.77;12.03;;;5.70;99.90;;;;;;5090828;28;20204;-65
2022/12/03 10:57:52;;;;;;;18.17;11.83;;;5.70;99.90;;;;;;5091104;28;20734;-63
2022/12/03 11:00:20;;;;;;;17.80;11.50;;;5.70;99.90;;;;;;5090896;28;20215;-66
2022/12/03 11:02:48;;;;;;;20.57;12.63;;;5.80;99.90;;;;;;5091362;28;20200;-66
2022/12/03 11:05:17;;;;;;;20.07;12.37;;;5.90;99.90;;;;;;5090697;28;20220;-65
2022/12/03 11:07:44;;;;;;;20.20;12.67;;;6.00;99.90;;;;;;5091067;28;20227;-65
2022/12/03 11:10:14;;;;;;;19.47;12.17;;;6.00;99.90;;;;;;5091229;28;20208;-66
2022/12/03 11:12:41;;;;;;;21.30;13.23;;;6.00;99.90;;;;;;5090329;28;20216;-65
2022/12/03 11:15:15;;;;;;;18.20;12.07;;;6.10;99.90;;;;;;5091138;28;20212;-64
2022/12/03 11:17:45;;;;;;;20.37;12.67;;;6.10;99.90;;;;;;5091068;28;20220;-65
2022/12/03 11:20:53;;;;;;;16.27;11.07;;;6.00;99.90;;;;;;5091403;28;20204;-64
2022/12/03 11:24:01;;;;;;;22.40;12.27;;;5.80;99.90;;;;;;5091153;28;20200;-65
2022/12/03 11:27:06;;;;;;;16.37;10.33;;;5.80;99.90;;;;;;5091409;28;20230;-64
2022/12/03 11:29:55;;;;;;;15.83;10.60;;;5.80;99.90;;;;;;5091116;28;20317;-62
2022/12/03 11:33:05;;;;;;;17.27;11.03;;;5.80;99.90;;;;;;5090425;28;20204;-64
2022/12/03 11:36:04;;;;;;;18.37;11.27;;;5.90;99.90;;;;;;5090551;28;20695;-66
2022/12/03 11:38:50;;;;;;;17.67;11.33;;;5.90;99.90;;;;;;5085544;28;20224;-65
2022/12/03 11:41:19;;;;;;;19.80;11.07;;;5.80;99.90;;;;;;5090443;28;20671;-65
2022/12/03 11:44:18;;;;;;;17.43;10.80;;;5.60;99.90;;;;;;5090303;28;20223;-66
2022/12/03 11:46:46;;;;;;;19.63;11.70;;;5.50;99.90;;;;;;5073624;28;20446;-66
2022/12/03 11:49:34;;;;;;;18.40;11.87;;;5.50;99.90;;;;;;5090676;28;20229;-66
2022/12/03 11:52:02;;;;;;;19.70;12.07;;;5.70;99.90;;;;;;5089847;28;20211;-66
2022/12/03 11:54:35;;;;;;;21.70;13.00;;;5.90;99.90;;;;;;5090568;28;20215;-64
2022/12/03 11:57:02;;;;;;;21.83;13.37;;;5.90;99.90;;;;;;5090567;28;20239;-65
2022/12/03 11:59:28;;;;;;;21.47;13.70;;;6.10;99.90;;;;;;5090805;28;20227;-66
2022/12/03 12:01:55;;;;;;;28.60;16.90;;;6.20;99.90;;;;;;5090342;28;20200;-63
2022/12/03 12:04:31;;;;;;;23.58;16.00;;;6.30;99.90;;;;;;5090191;28;20447;-64
2022/12/03 12:06:58;;;;;;;21.07;13.13;;;6.10;99.90;;;;;;5090226;28;20223;-66
2022/12/03 12:09:49;;;;;;;22.13;13.03;;;6.00;99.90;;;;;;5090373;28;20224;-65
2022/12/03 12:12:26;;;;;;;27.07;14.50;;;5.90;99.90;;;;;;5090469;28;20285;-66
2022/12/03 12:14:53;;;;;;;23.17;13.90;;;6.00;99.90;;;;;;5094700;28;20212;-67
2022/12/03 12:17:44;;;;;;;19.93;13.07;;;6.00;99.90;;;;;;5094114;28;20238;-67
2022/12/03 12:20:26;;;;;;;21.40;14.13;;;6.00;99.90;;;;;;5074103;28;20200;-65
2022/12/03 12:22:54;;;;;;;22.63;13.03;;;6.00;99.90;;;;;;5094743;28;20204;-69
2022/12/03 12:25:40;;;;;;;20.80;12.60;;;6.00;99.90;;;;;;5093911;28;20212;-68
2022/12/03 12:28:07;;;;;;;21.40;13.07;;;6.00;99.90;;;;;;5098764;28;20235;-71
2022/12/03 12:30:34;;;;;;;22.63;12.40;;;5.90;99.90;;;;;;5093791;28;20204;-67
2022/12/03 12:33:11;;;;;;;26.77;13.30;;;5.90;99.90;;;;;;5094678;28;20208;-64
2022/12/03 12:35:38;;;;;;;18.17;11.77;;;5.90;99.90;;;;;;5093812;28;20584;-67
2022/12/03 12:38:14;;;;;;;21.70;11.70;;;5.80;99.90;;;;;;5093546;28;20221;-67
2022/12/03 12:40:45;;;;;;;18.60;11.07;;;5.60;99.90;;;;;;5093894;28;20210;-68
2022/12/03 12:43:22;;;;;;;20.03;12.20;;;5.60;99.90;;;;;;5095140;28;20687;-63
2022/12/03 12:45:50;;;;;;;18.23;11.30;;;5.70;99.90;;;;;;5095189;28;20730;-63
2022/12/03 12:48:22;;;;;;;19.97;11.53;;;5.80;99.90;;;;;;5094983;28;20228;-61
2022/12/03 12:50:52;;;;;;;19.40;11.00;;;5.80;99.90;;;;;;5095133;28;20208;-63
2022/12/03 12:53:22;;;;;;;20.07;11.80;;;5.90;99.90;;;;;;5094972;28;20212;-63
2022/12/03 12:55:55;;;;;;;17.43;11.40;;;6.00;99.90;;;;;;5094924;28;20624;-63
2022/12/03 12:58:22;;;;;;;19.67;11.80;;;6.00;99.90;;;;;;5095039;28;20282;-64
2022/12/03 13:00:52;;;;;;;20.13;11.10;;;5.90;99.90;;;;;;5094487;28;20215;-63
2022/12/03 13:03:22;;;;;;;20.43;12.33;;;5.80;99.90;;;;;;5095280;28;20213;-63
2022/12/03 13:05:51;;;;;;;21.60;11.20;;;5.70;99.90;;;;;;5095048;28;20211;-63